Mendon - 24 Hour Table
Date & TimeSolar
Radiation
(W/m²)
Wind
Speed
(mph)
Wind
Direction
(degrees)
Air
Temperature
(°F)
Relative
Humidity
(%)
Precipitation
(inches)
2022/08/19 06:00 5 0.0 202 62.5 74 0.00
2022/08/19 05:00 3 0.0 300 61.7 69 0.00
2022/08/19 04:00 3 0.0 256 63.7 71 0.00
2022/08/19 03:00 3 0.0 294 66.0 67 0.00
2022/08/19 02:00 3 0.0 222 66.3 64 0.00
2022/08/19 01:00 3 0.0 247 64.2 61 0.00
2022/08/19 00:00 3 0.0 202 64.3 63 0.00
2022/08/18 23:00 3 0.0 312 65.0 62 0.00
2022/08/18 22:00 3 0.0 277 67.4 63 0.00
2022/08/18 21:00 4 0.0 326 70.3 51 0.00
2022/08/18 20:00 8 0.0 220 71.1 50 0.00
2022/08/18 19:00 41 0.0 7 75.6 48 0.00
2022/08/18 18:00 96 0.0 93 78.1 55 0.00
2022/08/18 17:00 149 0.0 165 81.8 60 0.00
2022/08/18 16:00 198 0.0 160 84.6 53 0.00
2022/08/18 15:00 301 0.0 139 85.1 37 0.00
2022/08/18 14:00 630 0.0 164 86.9 34 0.00
2022/08/18 13:00 713 0.0 287 85.1 36 0.00
2022/08/18 12:00 824 0.0 357 81.7 46 0.00
2022/08/18 11:00 322 0.0 201 73.0 62 0.00
2022/08/18 10:00 141 0.0 354 68.2 67 0.00
2022/08/18 09:00 119 0.0 165 64.7 75 0.00
2022/08/18 08:00 65 0.0 173 60.8 77 0.00
2022/08/18 07:00 20 0.0 262 59.2 80 0.00